createdAt,value
2022-08-22T14:57:19.982Z,932.63
2022-08-22T14:58:14.898Z,932.62
2022-08-22T14:59:15.672Z,932.65
2022-08-22T15:00:14.690Z,932.65
2022-08-22T15:01:15.433Z,932.53
2022-08-22T15:02:14.625Z,932.65
2022-08-22T15:03:14.695Z,932.57
2022-08-22T15:04:18.835Z,932.53
2022-08-22T15:05:14.648Z,932.54
2022-08-22T15:06:16.776Z,932.57
2022-08-22T15:07:15.869Z,932.57
2022-08-22T15:08:14.516Z,932.64
2022-08-22T15:09:14.494Z,932.59
2022-08-22T15:10:14.580Z,932.58
2022-08-22T15:11:15.542Z,932.58
2022-08-22T15:12:24.101Z,932.64
2022-08-22T15:13:37.346Z,932.60
2022-08-22T15:14:14.733Z,932.61
2022-08-22T15:15:14.479Z,932.62
2022-08-22T15:16:14.483Z,932.59
2022-08-22T15:17:14.519Z,932.50
2022-08-22T15:18:14.694Z,932.49
2022-08-22T15:19:15.246Z,932.54
2022-08-22T15:20:14.443Z,932.53
2022-08-22T15:21:14.510Z,932.50
2022-08-22T15:22:15.414Z,932.50
2022-08-22T15:23:14.421Z,932.55
2022-08-22T15:24:14.927Z,932.45
2022-08-22T15:25:15.026Z,932.44
2022-08-22T15:26:14.560Z,932.44
2022-08-22T15:27:14.302Z,932.50
2022-08-22T15:28:20.422Z,932.41
2022-08-22T15:29:15.461Z,932.39
2022-08-22T15:30:20.560Z,932.36
2022-08-22T15:31:15.459Z,932.42
2022-08-22T15:32:15.033Z,932.37
2022-08-22T15:33:14.250Z,932.42
2022-08-22T15:34:14.233Z,932.44
2022-08-22T15:35:14.569Z,932.44
2022-08-22T15:36:15.712Z,932.47
2022-08-22T15:37:16.510Z,932.43
2022-08-22T15:38:14.179Z,932.37
2022-08-22T15:39:14.155Z,932.40
2022-08-22T15:40:14.290Z,932.43
2022-08-22T15:41:14.117Z,932.43
2022-08-22T15:42:14.061Z,932.44
2022-08-22T15:43:14.050Z,932.41
2022-08-22T15:44:30.715Z,932.45
2022-08-22T15:45:15.107Z,932.41
2022-08-22T15:46:18.072Z,932.37
2022-08-22T15:47:25.517Z,932.42
2022-08-22T15:48:15.008Z,932.40
2022-08-22T15:49:13.968Z,932.37
2022-08-22T15:50:14.696Z,932.39
2022-08-22T15:51:13.999Z,932.35
2022-08-22T15:52:13.960Z,932.39
2022-08-22T15:53:13.980Z,932.32
2022-08-22T15:54:24.429Z,932.36
2022-08-22T15:55:14.915Z,932.32
2022-08-22T15:56:13.884Z,932.38
2022-08-22T15:57:13.916Z,932.38
2022-08-22T15:58:14.740Z,932.38
2022-08-22T15:59:13.881Z,932.40
2022-08-22T16:00:14.971Z,932.47
2022-08-22T16:01:19.090Z,932.40
2022-08-22T16:02:15.640Z,932.37
2022-08-22T16:03:14.420Z,932.38
2022-08-22T16:04:14.054Z,932.46
2022-08-22T16:05:14.219Z,932.43
2022-08-22T16:06:14.034Z,932.44
2022-08-22T16:07:13.790Z,932.42
2022-08-22T16:08:13.912Z,932.40
2022-08-22T16:09:14.078Z,932.42
2022-08-22T16:10:13.795Z,932.38
2022-08-22T16:11:14.114Z,932.42
2022-08-22T16:12:14.178Z,932.39
2022-08-22T16:13:13.669Z,932.36
2022-08-22T16:14:13.749Z,932.36
2022-08-22T16:15:17.857Z,932.40
2022-08-22T16:16:16.745Z,932.31
2022-08-22T16:17:15.711Z,932.41
2022-08-22T16:18:35.587Z,932.36
2022-08-22T16:19:13.680Z,932.33
2022-08-22T16:20:19.385Z,932.38
2022-08-22T16:21:13.657Z,932.41
2022-08-22T16:22:15.224Z,932.35
2022-08-22T16:23:16.558Z,932.36
2022-08-22T16:24:13.601Z,932.41
2022-08-22T16:25:13.612Z,932.40
2022-08-22T16:26:13.898Z,932.40
2022-08-22T16:27:13.741Z,932.39
2022-08-22T16:28:13.766Z,932.36
2022-08-22T16:29:18.003Z,932.36
2022-08-22T16:30:14.006Z,932.41
2022-08-22T16:31:15.381Z,932.33
2022-08-22T16:32:13.764Z,932.39
2022-08-22T16:33:23.023Z,932.35
2022-08-22T16:34:13.724Z,932.37
2022-08-22T16:35:13.513Z,932.35
2022-08-22T16:36:13.727Z,932.40
2022-08-22T16:37:15.729Z,932.38
2022-08-22T16:38:14.471Z,932.40
2022-08-22T16:41:12.579Z,932.42
2022-08-22T16:41:47.556Z,932.43
2022-08-22T16:42:47.322Z,932.42
2022-08-22T16:43:52.610Z,932.50
2022-08-22T16:44:47.858Z,932.43
2022-08-22T16:46:04.280Z,932.47
2022-08-22T16:46:54.184Z,932.42
2022-08-22T16:48:59.992Z,932.40
2022-08-22T16:50:01.537Z,932.47
2022-08-22T16:50:59.927Z,932.40
2022-08-22T16:52:01.394Z,932.42
2022-08-22T16:52:59.405Z,932.37
2022-08-22T16:54:13.000Z,932.44
2022-08-22T16:55:00.556Z,932.35
2022-08-22T16:56:00.863Z,932.40
2022-08-22T16:56:59.440Z,932.38
2022-08-22T16:58:07.268Z,932.39
2022-08-22T16:59:09.883Z,932.44
2022-08-22T17:00:00.667Z,932.34
2022-08-22T17:00:59.406Z,932.42
2022-08-22T17:01:59.410Z,932.36
2022-08-22T17:02:59.291Z,932.46
2022-08-22T17:04:05.495Z,932.40
2022-08-22T17:05:04.357Z,932.42
2022-08-22T17:06:00.211Z,932.38
2022-08-22T17:06:59.307Z,932.38
2022-08-22T17:08:00.702Z,932.41
2022-08-22T17:09:00.936Z,932.43
2022-08-22T17:09:59.276Z,932.46
2022-08-22T17:10:59.524Z,932.42
2022-08-22T17:11:59.842Z,932.41
2022-08-22T17:13:00.136Z,932.42
2022-08-22T17:14:00.067Z,932.38
2022-08-22T17:14:59.309Z,932.39
2022-08-22T17:23:35.239Z,932.49
2022-08-22T17:24:41.091Z,932.41
2022-08-22T17:25:43.930Z,932.42
2022-08-22T17:26:18.991Z,932.47
2022-08-22T17:27:18.517Z,932.37
2022-08-22T17:28:21.634Z,932.42
2022-08-22T17:29:22.839Z,932.47
2022-08-22T17:30:19.560Z,932.44
2022-08-22T17:31:20.033Z,932.46
2022-08-22T17:32:18.854Z,932.47
2022-08-22T17:33:18.461Z,932.52
2022-08-22T17:34:19.284Z,932.48
2022-08-22T17:35:40.318Z,932.53
2022-08-22T17:36:40.585Z,932.54
2022-08-22T17:37:40.479Z,932.54
2022-08-22T17:38:18.384Z,932.53
2022-08-22T17:43:49.668Z,932.63
2022-08-22T17:44:53.172Z,932.55
2022-08-22T17:53:21.711Z,932.67
2022-08-22T17:55:08.105Z,932.64
2022-08-22T17:56:11.362Z,932.62
2022-08-22T17:57:11.121Z,932.60
2022-08-22T17:58:12.105Z,932.64
2022-08-22T17:59:08.306Z,932.61
2022-08-22T18:00:06.923Z,932.65
2022-08-22T18:01:07.045Z,932.62
2022-08-22T18:02:06.880Z,932.66
2022-08-22T18:03:06.972Z,932.61
2022-08-22T18:04:11.223Z,932.65
2022-08-22T18:05:06.992Z,932.67
2022-08-22T18:06:16.739Z,932.67
2022-08-22T18:07:06.881Z,932.68
2022-08-22T18:09:14.128Z,932.71
2022-08-22T18:10:07.741Z,932.79
2022-08-22T18:12:02.275Z,932.71
2022-08-22T18:13:06.805Z,932.74
2022-08-22T18:14:05.011Z,932.74
2022-08-22T18:15:01.935Z,932.73
2022-08-22T18:16:01.883Z,932.70
2022-08-22T18:17:02.179Z,932.79
2022-08-22T18:18:02.003Z,932.74
2022-08-22T18:19:01.884Z,932.79
2022-08-22T18:20:06.086Z,932.78
2022-08-22T18:21:01.884Z,932.76
2022-08-22T18:22:01.831Z,932.75
2022-08-22T18:23:02.804Z,932.81
2022-08-22T18:24:01.776Z,932.84
2022-08-22T18:25:01.857Z,932.87
2022-08-22T18:26:02.775Z,932.88
2022-08-22T18:27:07.239Z,932.89
2022-08-22T18:28:10.437Z,932.84
2022-08-22T18:32:26.715Z,932.93
2022-08-22T18:33:26.136Z,932.93
2022-08-22T18:34:27.476Z,932.94
2022-08-22T18:35:25.367Z,932.93
2022-08-22T18:36:25.334Z,932.91
2022-08-22T18:37:25.695Z,932.94
2022-08-22T18:38:25.146Z,932.96
2022-08-22T18:39:25.263Z,932.97
2022-08-22T18:40:25.474Z,933.00
2022-08-22T18:41:27.366Z,932.99
